sensor_id;sensor_type;location;lat;lon;timestamp;temperature;humidity
5128;DHT22;2582;48.770;9.190;2023-11-21T00:02:12;10.40;99.90
5128;DHT22;2582;48.770;9.190;2023-11-21T00:04:37;10.40;99.90
5128;DHT22;2582;48.770;9.190;2023-11-21T00:07:03;10.50;99.90
5128;DHT22;2582;48.770;9.190;2023-11-21T00:09:28;10.70;99.90
5128;DHT22;2582;48.770;9.190;2023-11-21T00:11:54;10.70;99.90
5128;DHT22;2582;48.770;9.190;2023-11-21T00:14:20;10.80;99.90
5128;DHT22;2582;48.770;9.190;2023-11-21T00:16:45;10.80;99.90
5128;DHT22;2582;48.770;9.190;2023-11-21T00:19:11;10.60;99.90
5128;DHT22;2582;48.770;9.190;2023-11-21T00:21:37;10.60;99.90
5128;DHT22;2582;48.770;9.190;2023-11-21T00:24:03;10.50;99.90
5128;DHT22;2582;48.770;9.190;2023-11-21T00:26:29;10.50;99.90
5128;DHT22;2582;48.770;9.190;2023-11-21T00:28:56;10.40;99.90
5128;DHT22;2582;48.770;9.190;2023-11-21T00:31:22;10.30;99.90
5128;DHT22;2582;48.770;9.190;2023-11-21T00:33:47;10.20;99.90
5128;DHT22;2582;48.770;9.190;2023-11-21T00:36:13;10.20;99.90
5128;DHT22;2582;48.770;9.190;2023-11-21T00:38:38;10.30;99.90
5128;DHT22;2582;48.770;9.190;2023-11-21T00:41:06;10.30;99.90
5128;DHT22;2582;48.770;9.190;2023-11-21T00:43:31;10.20;99.90
5128;DHT22;2582;48.770;9.190;2023-11-21T00:45:58;10.30;99.90
5128;DHT22;2582;48.770;9.190;2023-11-21T00:48:24;10.40;99.90
5128;DHT22;2582;48.770;9.190;2023-11-21T00:50:49;10.40;99.90
5128;DHT22;2582;48.770;9.190;2023-11-21T00:53:15;10.40;99.90
5128;DHT22;2582;48.770;9.190;2023-11-21T00:55:41;10.20;99.90
5128;DHT22;2582;48.770;9.190;2023-11-21T00:58:07;10.30;99.90
5128;DHT22;2582;48.770;9.190;2023-11-21T01:00:33;10.50;99.90
5128;DHT22;2582;48.770;9.190;2023-11-21T01:02:59;10.50;99.90
5128;DHT22;2582;48.770;9.190;2023-11-21T01:05:25;10.60;99.90
5128;DHT22;2582;48.770;9.190;2023-11-21T01:07:50;10.60;99.90
5128;DHT22;2582;48.770;9.190;2023-11-21T01:10:16;10.60;99.90
5128;DHT22;2582;48.770;9.190;2023-11-21T01:12:42;10.60;99.90
5128;DHT22;2582;48.770;9.190;2023-11-21T01:15:08;10.50;99.90
5128;DHT22;2582;48.770;9.190;2023-11-21T01:17:34;10.50;99.90
5128;DHT22;2582;48.770;9.190;2023-11-21T01:20:01;10.30;99.90
5128;DHT22;2582;48.770;9.190;2023-11-21T01:22:28;10.40;99.90
5128;DHT22;2582;48.770;9.190;2023-11-21T01:24:54;10.40;99.90
5128;DHT22;2582;48.770;9.190;2023-11-21T01:27:20;10.50;99.90
5128;DHT22;2582;48.770;9.190;2023-11-21T01:29:45;10.60;99.90
5128;DHT22;2582;48.770;9.190;2023-11-21T01:32:11;10.70;99.90
5128;DHT22;2582;48.770;9.190;2023-11-21T01:34:37;10.50;99.90
5128;DHT22;2582;48.770;9.190;2023-11-21T01:37:03;10.50;99.90
5128;DHT22;2582;48.770;9.190;2023-11-21T01:39:30;10.50;99.90
5128;DHT22;2582;48.770;9.190;2023-11-21T01:41:55;10.40;99.90
5128;DHT22;2582;48.770;9.190;2023-11-21T01:44:24;10.40;99.90
5128;DHT22;2582;48.770;9.190;2023-11-21T01:46:50;10.40;99.90
5128;DHT22;2582;48.770;9.190;2023-11-21T01:49:17;10.50;99.90
5128;DHT22;2582;48.770;9.190;2023-11-21T01:51:44;10.50;99.90
5128;DHT22;2582;48.770;9.190;2023-11-21T01:54:12;10.40;99.90
5128;DHT22;2582;48.770;9.190;2023-11-21T01:56:38;10.50;99.90
5128;DHT22;2582;48.770;9.190;2023-11-21T01:59:04;10.60;99.90
5128;DHT22;2582;48.770;9.190;2023-11-21T02:01:30;10.70;99.90
5128;DHT22;2582;48.770;9.190;2023-11-21T02:03:56;10.60;99.90
5128;DHT22;2582;48.770;9.190;2023-11-21T02:06:21;10.70;99.90
5128;DHT22;2582;48.770;9.190;2023-11-21T02:08:47;10.80;99.90
5128;DHT22;2582;48.770;9.190;2023-11-21T02:11:14;10.80;99.90
5128;DHT22;2582;48.770;9.190;2023-11-21T02:13:40;10.70;99.90
5128;DHT22;2582;48.770;9.190;2023-11-21T02:16:10;10.70;99.90
5128;DHT22;2582;48.770;9.190;2023-11-21T02:18:36;10.80;99.90
5128;DHT22;2582;48.770;9.190;2023-11-21T02:21:04;10.70;99.90
5128;DHT22;2582;48.770;9.190;2023-11-21T02:23:30;10.70;99.90
5128;DHT22;2582;48.770;9.190;2023-11-21T02:25:55;10.70;99.90
5128;DHT22;2582;48.770;9.190;2023-11-21T02:28:21;10.50;99.90
5128;DHT22;2582;48.770;9.190;2023-11-21T02:30:51;10.40;99.90
5128;DHT22;2582;48.770;9.190;2023-11-21T02:33:21;10.50;99.90
5128;DHT22;2582;48.770;9.190;2023-11-21T02:35:47;10.40;99.90
5128;DHT22;2582;48.770;9.190;2023-11-21T02:38:12;10.40;99.90
5128;DHT22;2582;48.770;9.190;2023-11-21T02:40:39;10.30;99.90
5128;DHT22;2582;48.770;9.190;2023-11-21T02:43:04;10.50;99.90
5128;DHT22;2582;48.770;9.190;2023-11-21T02:45:31;10.60;99.90
5128;DHT22;2582;48.770;9.190;2023-11-21T02:47:57;10.60;99.90
5128;DHT22;2582;48.770;9.190;2023-11-21T02:50:23;10.60;99.90
5128;DHT22;2582;48.770;9.190;2023-11-21T02:52:49;10.70;99.90
5128;DHT22;2582;48.770;9.190;2023-11-21T02:55:14;10.60;99.90
5128;DHT22;2582;48.770;9.190;2023-11-21T02:57:40;10.50;99.90
5128;DHT22;2582;48.770;9.190;2023-11-21T03:00:07;10.60;99.90
5128;DHT22;2582;48.770;9.190;2023-11-21T03:02:33;10.60;99.90
5128;DHT22;2582;48.770;9.190;2023-11-21T03:05:02;10.60;99.90
5128;DHT22;2582;48.770;9.190;2023-11-21T03:07:27;10.50;99.90
5128;DHT22;2582;48.770;9.190;2023-11-21T03:09:53;10.40;99.90
5128;DHT22;2582;48.770;9.190;2023-11-21T03:12:19;10.20;99.90
5128;DHT22;2582;48.770;9.190;2023-11-21T03:14:45;10.40;99.90
5128;DHT22;2582;48.770;9.190;2023-11-21T03:17:10;10.40;99.90
5128;DHT22;2582;48.770;9.190;2023-11-21T03:19:36;10.50;99.90
5128;DHT22;2582;48.770;9.190;2023-11-21T03:22:02;10.60;99.90
5128;DHT22;2582;48.770;9.190;2023-11-21T03:24:29;10.70;99.90
5128;DHT22;2582;48.770;9.190;2023-11-21T03:26:55;10.70;99.90
5128;DHT22;2582;48.770;9.190;2023-11-21T03:29:20;10.60;99.90
5128;DHT22;2582;48.770;9.190;2023-11-21T03:31:46;10.60;99.90
5128;DHT22;2582;48.770;9.190;2023-11-21T03:34:23;10.60;99.90
5128;DHT22;2582;48.770;9.190;2023-11-21T03:36:49;10.50;99.90
5128;DHT22;2582;48.770;9.190;2023-11-21T03:39:15;10.60;99.90
5128;DHT22;2582;48.770;9.190;2023-11-21T03:41:40;10.70;99.90
5128;DHT22;2582;48.770;9.190;2023-11-21T03:44:06;10.70;99.90
5128;DHT22;2582;48.770;9.190;2023-11-21T03:46:31;10.80;99.90
5128;DHT22;2582;48.770;9.190;2023-11-21T03:48:57;10.80;99.90
5128;DHT22;2582;48.770;9.190;2023-11-21T03:51:22;10.90;99.90
5128;DHT22;2582;48.770;9.190;2023-11-21T03:53:48;10.80;99.90
5128;DHT22;2582;48.770;9.190;2023-11-21T03:56:14;10.80;99.90
5128;DHT22;2582;48.770;9.190;2023-11-21T03:58:39;10.80;99.90
5128;DHT22;2582;48.770;9.190;2023-11-21T04:01:05;10.70;99.90
5128;DHT22;2582;48.770;9.190;2023-11-21T04:03:31;10.60;99.90
5128;DHT22;2582;48.770;9.190;2023-11-21T04:05:57;10.70;99.90
5128;DHT22;2582;48.770;9.190;2023-11-21T04:08:22;10.60;99.90
5128;DHT22;2582;48.770;9.190;2023-11-21T04:10:48;10.40;99.90
5128;DHT22;2582;48.770;9.190;2023-11-21T04:13:14;10.30;99.90
5128;DHT22;2582;48.770;9.190;2023-11-21T04:15:39;10.40;99.90
5128;DHT22;2582;48.770;9.190;2023-11-21T04:18:05;10.50;99.90
5128;DHT22;2582;48.770;9.190;2023-11-21T04:20:30;10.60;99.90
5128;DHT22;2582;48.770;9.190;2023-11-21T04:22:56;10.60;99.90
5128;DHT22;2582;48.770;9.190;2023-11-21T04:25:21;10.70;99.90
5128;DHT22;2582;48.770;9.190;2023-11-21T04:27:48;10.50;99.90
5128;DHT22;2582;48.770;9.190;2023-11-21T04:30:14;10.60;99.90
5128;DHT22;2582;48.770;9.190;2023-11-21T04:32:40;10.70;99.90
5128;DHT22;2582;48.770;9.190;2023-11-21T04:35:07;10.70;99.90
5128;DHT22;2582;48.770;9.190;2023-11-21T04:37:34;10.70;99.90
5128;DHT22;2582;48.770;9.190;2023-11-21T04:39:59;10.70;99.90
5128;DHT22;2582;48.770;9.190;2023-11-21T04:42:25;10.70;99.90
5128;DHT22;2582;48.770;9.190;2023-11-21T04:44:50;10.70;99.90
5128;DHT22;2582;48.770;9.190;2023-11-21T04:47:18;10.70;99.90
5128;DHT22;2582;48.770;9.190;2023-11-21T04:49:46;10.60;99.90
5128;DHT22;2582;48.770;9.190;2023-11-21T04:52:12;10.50;99.90
5128;DHT22;2582;48.770;9.190;2023-11-21T04:54:38;10.50;99.90
5128;DHT22;2582;48.770;9.190;2023-11-21T04:57:05;10.40;99.90
5128;DHT22;2582;48.770;9.190;2023-11-21T04:59:33;10.20;99.90
5128;DHT22;2582;48.770;9.190;2023-11-21T05:01:58;10.20;99.90
5128;DHT22;2582;48.770;9.190;2023-11-21T05:04:25;10.10;99.90
5128;DHT22;2582;48.770;9.190;2023-11-21T05:06:51;10.20;99.90
5128;DHT22;2582;48.770;9.190;2023-11-21T05:09:16;10.10;99.90
5128;DHT22;2582;48.770;9.190;2023-11-21T05:11:43;10.20;99.90
5128;DHT22;2582;48.770;9.190;2023-11-21T05:14:08;10.10;99.90
5128;DHT22;2582;48.770;9.190;2023-11-21T05:16:34;10.10;99.90
5128;DHT22;2582;48.770;9.190;2023-11-21T05:19:00;10.10;99.90
5128;DHT22;2582;48.770;9.190;2023-11-21T05:21:30;10.20;99.90
5128;DHT22;2582;48.770;9.190;2023-11-21T05:23:58;10.10;99.90
5128;DHT22;2582;48.770;9.190;2023-11-21T05:26:24;10.30;99.90
5128;DHT22;2582;48.770;9.190;2023-11-21T05:28:49;10.30;99.90
5128;DHT22;2582;48.770;9.190;2023-11-21T05:31:15;10.40;99.90
5128;DHT22;2582;48.770;9.190;2023-11-21T05:33:41;10.40;99.90
5128;DHT22;2582;48.770;9.190;2023-11-21T05:36:07;10.40;99.90
5128;DHT22;2582;48.770;9.190;2023-11-21T05:38:33;10.40;99.90
5128;DHT22;2582;48.770;9.190;2023-11-21T05:40:59;10.50;99.90
5128;DHT22;2582;48.770;9.190;2023-11-21T05:43:24;10.40;99.90
5128;DHT22;2582;48.770;9.190;2023-11-21T05:45:51;10.40;99.90
5128;DHT22;2582;48.770;9.190;2023-11-21T05:48:17;10.50;99.90
5128;DHT22;2582;48.770;9.190;2023-11-21T05:50:43;10.50;99.90
5128;DHT22;2582;48.770;9.190;2023-11-21T05:53:08;10.50;99.90
5128;DHT22;2582;48.770;9.190;2023-11-21T05:55:36;10.40;99.90
5128;DHT22;2582;48.770;9.190;2023-11-21T05:58:02;10.40;99.90
5128;DHT22;2582;48.770;9.190;2023-11-21T06:00:28;10.30;99.90
5128;DHT22;2582;48.770;9.190;2023-11-21T06:02:54;10.30;99.90
5128;DHT22;2582;48.770;9.190;2023-11-21T06:05:21;10.40;99.90
5128;DHT22;2582;48.770;9.190;2023-11-21T06:07:48;10.50;99.90
5128;DHT22;2582;48.770;9.190;2023-11-21T06:10:14;10.40;99.90
5128;DHT22;2582;48.770;9.190;2023-11-21T06:12:40;10.30;99.90
5128;DHT22;2582;48.770;9.190;2023-11-21T06:15:09;10.30;99.90
5128;DHT22;2582;48.770;9.190;2023-11-21T06:17:35;10.30;99.90
5128;DHT22;2582;48.770;9.190;2023-11-21T06:20:02;10.30;99.90
5128;DHT22;2582;48.770;9.190;2023-11-21T06:22:37;10.30;99.90
5128;DHT22;2582;48.770;9.190;2023-11-21T06:25:03;10.10;99.90
5128;DHT22;2582;48.770;9.190;2023-11-21T06:27:33;10.10;99.90
5128;DHT22;2582;48.770;9.190;2023-11-21T06:29:59;10.20;99.90
5128;DHT22;2582;48.770;9.190;2023-11-21T06:32:25;10.20;99.90
5128;DHT22;2582;48.770;9.190;2023-11-21T06:34:51;10.10;99.90
5128;DHT22;2582;48.770;9.190;2023-11-21T06:37:20;10.10;99.90
5128;DHT22;2582;48.770;9.190;2023-11-21T06:39:48;10.10;99.90
5128;DHT22;2582;48.770;9.190;2023-11-21T06:42:14;10.10;99.90
5128;DHT22;2582;48.770;9.190;2023-11-21T06:44:40;10.10;99.90
5128;DHT22;2582;48.770;9.190;2023-11-21T06:47:06;10.10;99.90
5128;DHT22;2582;48.770;9.190;2023-11-21T06:49:32;10.10;99.90
5128;DHT22;2582;48.770;9.190;2023-11-21T06:51:58;10.20;99.90
5128;DHT22;2582;48.770;9.190;2023-11-21T06:54:24;10.20;99.90
5128;DHT22;2582;48.770;9.190;2023-11-21T06:56:50;10.30;99.90
5128;DHT22;2582;48.770;9.190;2023-11-21T06:59:16;10.40;99.90
5128;DHT22;2582;48.770;9.190;2023-11-21T07:01:41;10.50;99.90
5128;DHT22;2582;48.770;9.190;2023-11-21T07:04:07;10.50;99.90
5128;DHT22;2582;48.770;9.190;2023-11-21T07:06:34;10.70;99.90
5128;DHT22;2582;48.770;9.190;2023-11-21T07:09:00;10.70;99.90
5128;DHT22;2582;48.770;9.190;2023-11-21T07:11:27;10.70;99.90
5128;DHT22;2582;48.770;9.190;2023-11-21T07:13:52;10.80;99.90
5128;DHT22;2582;48.770;9.190;2023-11-21T07:16:18;10.70;99.90
5128;DHT22;2582;48.770;9.190;2023-11-21T07:18:44;10.70;99.90
5128;DHT22;2582;48.770;9.190;2023-11-21T07:21:10;10.80;99.90
5128;DHT22;2582;48.770;9.190;2023-11-21T07:23:38;10.80;99.90
5128;DHT22;2582;48.770;9.190;2023-11-21T07:26:03;10.80;99.90
5128;DHT22;2582;48.770;9.190;2023-11-21T07:28:34;10.80;99.90
5128;DHT22;2582;48.770;9.190;2023-11-21T07:31:00;10.80;99.90
5128;DHT22;2582;48.770;9.190;2023-11-21T07:33:26;10.90;99.90
5128;DHT22;2582;48.770;9.190;2023-11-21T07:35:51;11.00;99.90
5128;DHT22;2582;48.770;9.190;2023-11-21T07:38:17;11.00;99.90
5128;DHT22;2582;48.770;9.190;2023-11-21T07:40:43;10.90;99.90
5128;DHT22;2582;48.770;9.190;2023-11-21T07:43:09;11.00;99.90
5128;DHT22;2582;48.770;9.190;2023-11-21T07:45:36;11.00;99.90
5128;DHT22;2582;48.770;9.190;2023-11-21T07:48:01;11.10;99.90
5128;DHT22;2582;48.770;9.190;2023-11-21T07:50:28;11.00;99.90
5128;DHT22;2582;48.770;9.190;2023-11-21T07:52:54;11.00;99.90
5128;DHT22;2582;48.770;9.190;2023-11-21T07:55:20;11.10;99.90
5128;DHT22;2582;48.770;9.190;2023-11-21T07:57:45;11.20;99.90
5128;DHT22;2582;48.770;9.190;2023-11-21T08:00:12;11.20;99.90
5128;DHT22;2582;48.770;9.190;2023-11-21T08:02:39;11.30;99.90
5128;DHT22;2582;48.770;9.190;2023-11-21T08:05:05;11.40;99.90
5128;DHT22;2582;48.770;9.190;2023-11-21T08:07:33;11.40;99.90
5128;DHT22;2582;48.770;9.190;2023-11-21T08:09:58;11.50;99.90
5128;DHT22;2582;48.770;9.190;2023-11-21T08:12:24;11.50;99.90
5128;DHT22;2582;48.770;9.190;2023-11-21T08:14:49;11.60;99.90
5128;DHT22;2582;48.770;9.190;2023-11-21T08:17:15;11.60;99.90
5128;DHT22;2582;48.770;9.190;2023-11-21T08:19:41;11.60;99.90
5128;DHT22;2582;48.770;9.190;2023-11-21T08:22:06;11.60;99.90
5128;DHT22;2582;48.770;9.190;2023-11-21T08:24:33;11.60;99.90
5128;DHT22;2582;48.770;9.190;2023-11-21T08:26:59;11.60;99.90
5128;DHT22;2582;48.770;9.190;2023-11-21T08:29:24;11.50;99.90
5128;DHT22;2582;48.770;9.190;2023-11-21T08:31:50;11.50;99.90
5128;DHT22;2582;48.770;9.190;2023-11-21T08:34:16;11.50;99.90
5128;DHT22;2582;48.770;9.190;2023-11-21T08:36:42;11.60;99.90
5128;DHT22;2582;48.770;9.190;2023-11-21T08:39:08;11.60;99.90
5128;DHT22;2582;48.770;9.190;2023-11-21T08:41:35;11.70;99.90
5128;DHT22;2582;48.770;9.190;2023-11-21T08:44:02;11.70;99.90
5128;DHT22;2582;48.770;9.190;2023-11-21T08:46:31;11.70;99.90
5128;DHT22;2582;48.770;9.190;2023-11-21T08:48:57;11.80;99.90
5128;DHT22;2582;48.770;9.190;2023-11-21T08:51:22;11.80;99.90
5128;DHT22;2582;48.770;9.190;2023-11-21T08:53:48;11.90;99.90
5128;DHT22;2582;48.770;9.190;2023-11-21T08:56:14;12.00;99.90
5128;DHT22;2582;48.770;9.190;2023-11-21T08:58:39;12.10;99.90
5128;DHT22;2582;48.770;9.190;2023-11-21T09:01:05;11.90;99.90
5128;DHT22;2582;48.770;9.190;2023-11-21T09:03:32;11.80;99.90
5128;DHT22;2582;48.770;9.190;2023-11-21T09:06:00;12.10;99.90
5128;DHT22;2582;48.770;9.190;2023-11-21T09:08:25;12.40;99.90
5128;DHT22;2582;48.770;9.190;2023-11-21T09:10:53;12.60;99.90
5128;DHT22;2582;48.770;9.190;2023-11-21T09:13:19;12.90;99.90
5128;DHT22;2582;48.770;9.190;2023-11-21T09:15:44;12.80;99.90
5128;DHT22;2582;48.770;9.190;2023-11-21T09:18:15;13.00;99.90
5128;DHT22;2582;48.770;9.190;2023-11-21T09:20:42;13.30;99.90
5128;DHT22;2582;48.770;9.190;2023-11-21T09:23:09;12.90;99.90
5128;DHT22;2582;48.770;9.190;2023-11-21T09:25:35;12.40;99.90
5128;DHT22;2582;48.770;9.190;2023-11-21T09:28:05;12.60;99.90
5128;DHT22;2582;48.770;9.190;2023-11-21T09:30:35;12.60;99.90
5128;DHT22;2582;48.770;9.190;2023-11-21T09:33:01;12.60;99.90
5128;DHT22;2582;48.770;9.190;2023-11-21T09:35:27;12.90;99.90
5128;DHT22;2582;48.770;9.190;2023-11-21T09:37:53;13.00;99.90
5128;DHT22;2582;48.770;9.190;2023-11-21T09:40:21;13.00;99.90
5128;DHT22;2582;48.770;9.190;2023-11-21T09:42:58;13.30;99.90
5128;DHT22;2582;48.770;9.190;2023-11-21T09:45:34;13.30;99.90
5128;DHT22;2582;48.770;9.190;2023-11-21T09:48:01;13.20;99.90
5128;DHT22;2582;48.770;9.190;2023-11-21T09:50:27;13.10;99.90
5128;DHT22;2582;48.770;9.190;2023-11-21T09:53:11;13.00;99.90
5128;DHT22;2582;48.770;9.190;2023-11-21T09:55:45;12.90;99.90
5128;DHT22;2582;48.770;9.190;2023-11-21T09:58:11;12.40;99.90
5128;DHT22;2582;48.770;9.190;2023-11-21T10:00:41;12.40;99.90
5128;DHT22;2582;48.770;9.190;2023-11-21T10:03:07;12.20;99.90
5128;DHT22;2582;48.770;9.190;2023-11-21T10:05:34;12.20;99.90
5128;DHT22;2582;48.770;9.190;2023-11-21T10:08:00;12.30;99.90
5128;DHT22;2582;48.770;9.190;2023-11-21T10:10:27;12.10;99.90
5128;DHT22;2582;48.770;9.190;2023-11-21T10:13:01;12.00;99.90
5128;DHT22;2582;48.770;9.190;2023-11-21T10:15:27;12.00;99.90
5128;DHT22;2582;48.770;9.190;2023-11-21T10:17:53;12.00;99.90
5128;DHT22;2582;48.770;9.190;2023-11-21T10:20:20;12.20;99.90
5128;DHT22;2582;48.770;9.190;2023-11-21T10:22:45;12.20;99.90
5128;DHT22;2582;48.770;9.190;2023-11-21T10:25:12;12.00;99.90
5128;DHT22;2582;48.770;9.190;2023-11-21T10:27:40;12.00;99.90
5128;DHT22;2582;48.770;9.190;2023-11-21T10:30:07;11.80;99.90
5128;DHT22;2582;48.770;9.190;2023-11-21T10:32:40;11.80;99.90
5128;DHT22;2582;48.770;9.190;2023-11-21T10:35:06;11.60;99.90
5128;DHT22;2582;48.770;9.190;2023-11-21T10:37:41;11.40;99.90
5128;DHT22;2582;48.770;9.190;2023-11-21T10:40:09;11.30;99.90
5128;DHT22;2582;48.770;9.190;2023-11-21T10:42:38;11.30;99.90
5128;DHT22;2582;48.770;9.190;2023-11-21T10:45:05;11.40;99.90
5128;DHT22;2582;48.770;9.190;2023-11-21T10:47:41;11.50;99.90
5128;DHT22;2582;48.770;9.190;2023-11-21T10:50:07;11.60;99.90
5128;DHT22;2582;48.770;9.190;2023-11-21T10:52:37;11.70;99.90
5128;DHT22;2582;48.770;9.190;2023-11-21T10:55:16;11.60;99.90
5128;DHT22;2582;48.770;9.190;2023-11-21T10:57:44;11.80;99.90
5128;DHT22;2582;48.770;9.190;2023-11-21T11:00:12;11.90;99.90
5128;DHT22;2582;48.770;9.190;2023-11-21T11:02:39;11.90;99.90
5128;DHT22;2582;48.770;9.190;2023-11-21T11:05:05;12.00;99.90
5128;DHT22;2582;48.770;9.190;2023-11-21T11:07:32;12.20;99.90
5128;DHT22;2582;48.770;9.190;2023-11-21T11:09:59;12.40;99.90
5128;DHT22;2582;48.770;9.190;2023-11-21T11:12:25;12.60;99.90
5128;DHT22;2582;48.770;9.190;2023-11-21T11:14:51;12.80;99.90
5128;DHT22;2582;48.770;9.190;2023-11-21T11:17:19;13.00;99.90
5128;DHT22;2582;48.770;9.190;2023-11-21T11:19:46;13.10;99.90
5128;DHT22;2582;48.770;9.190;2023-11-21T11:22:18;13.10;99.90
5128;DHT22;2582;48.770;9.190;2023-11-21T11:25:24;13.30;99.90
5128;DHT22;2582;48.770;9.190;2023-11-21T11:28:14;13.70;99.90
5128;DHT22;2582;48.770;9.190;2023-11-21T11:33:31;13.40;99.90
5128;DHT22;2582;48.770;9.190;2023-11-21T11:36:19;13.10;99.90
5128;DHT22;2582;48.770;9.190;2023-11-21T11:38:46;12.50;99.90
5128;DHT22;2582;48.770;9.190;2023-11-21T11:41:27;12.10;99.90
5128;DHT22;2582;48.770;9.190;2023-11-21T11:43:55;12.10;99.90
5128;DHT22;2582;48.770;9.190;2023-11-21T11:46:20;12.10;99.90
5128;DHT22;2582;48.770;9.190;2023-11-21T11:48:48;12.30;99.90
5128;DHT22;2582;48.770;9.190;2023-11-21T11:51:14;12.70;99.90
5128;DHT22;2582;48.770;9.190;2023-11-21T11:53:45;12.80;99.90
5128;DHT22;2582;48.770;9.190;2023-11-21T11:56:31;12.70;99.90
5128;DHT22;2582;48.770;9.190;2023-11-21T11:59:01;12.80;99.90
5128;DHT22;2582;48.770;9.190;2023-11-21T12:01:34;12.70;99.90
5128;DHT22;2582;48.770;9.190;2023-11-21T12:06:51;12.70;99.90
5128;DHT22;2582;48.770;9.190;2023-11-21T12:11:45;12.70;99.90
5128;DHT22;2582;48.770;9.190;2023-11-21T12:14:12;12.50;99.90
5128;DHT22;2582;48.770;9.190;2023-11-21T12:16:39;12.60;99.90
5128;DHT22;2582;48.770;9.190;2023-11-21T12:19:04;12.50;99.90
5128;DHT22;2582;48.770;9.190;2023-11-21T12:21:30;12.40;99.90
5128;DHT22;2582;48.770;9.190;2023-11-21T12:23:57;12.30;99.90
5128;DHT22;2582;48.770;9.190;2023-11-21T12:26:26;11.90;99.90
5128;DHT22;2582;48.770;9.190;2023-11-21T12:28:52;11.50;99.90
5128;DHT22;2582;48.770;9.190;2023-11-21T12:31:21;11.20;99.90
5128;DHT22;2582;48.770;9.190;2023-11-21T12:33:47;11.20;99.90
5128;DHT22;2582;48.770;9.190;2023-11-21T12:36:13;11.40;99.90
5128;DHT22;2582;48.770;9.190;2023-11-21T12:38:38;11.70;99.90
5128;DHT22;2582;48.770;9.190;2023-11-21T12:41:05;12.00;99.90
5128;DHT22;2582;48.770;9.190;2023-11-21T12:43:32;12.40;99.90
5128;DHT22;2582;48.770;9.190;2023-11-21T12:46:08;12.70;99.90
5128;DHT22;2582;48.770;9.190;2023-11-21T12:48:39;12.70;99.90
5128;DHT22;2582;48.770;9.190;2023-11-21T12:51:07;12.80;99.90
5128;DHT22;2582;48.770;9.190;2023-11-21T12:53:33;12.90;99.90
5128;DHT22;2582;48.770;9.190;2023-11-21T12:56:07;13.00;99.90
5128;DHT22;2582;48.770;9.190;2023-11-21T12:58:37;13.10;99.90
5128;DHT22;2582;48.770;9.190;2023-11-21T13:01:06;13.10;99.90
5128;DHT22;2582;48.770;9.190;2023-11-21T13:03:37;12.60;99.90
5128;DHT22;2582;48.770;9.190;2023-11-21T13:06:04;12.20;99.90
5128;DHT22;2582;48.770;9.190;2023-11-21T13:08:30;12.00;99.90
5128;DHT22;2582;48.770;9.190;2023-11-21T13:10:58;11.90;99.90
5128;DHT22;2582;48.770;9.190;2023-11-21T13:13:25;12.10;99.90
5128;DHT22;2582;48.770;9.190;2023-11-21T13:15:53;12.30;99.90
5128;DHT22;2582;48.770;9.190;2023-11-21T13:18:23;12.40;99.90
5128;DHT22;2582;48.770;9.190;2023-11-21T13:20:50;12.70;99.90
5128;DHT22;2582;48.770;9.190;2023-11-21T13:23:16;12.70;99.90
5128;DHT22;2582;48.770;9.190;2023-11-21T13:25:42;12.30;99.90
5128;DHT22;2582;48.770;9.190;2023-11-21T13:28:10;12.10;99.90
5128;DHT22;2582;48.770;9.190;2023-11-21T13:30:36;11.40;99.90
5128;DHT22;2582;48.770;9.190;2023-11-21T13:33:06;11.50;99.90
5128;DHT22;2582;48.770;9.190;2023-11-21T13:35:37;11.30;99.90
5128;DHT22;2582;48.770;9.190;2023-11-21T13:38:09;11.20;99.90
5128;DHT22;2582;48.770;9.190;2023-11-21T13:40:36;10.90;99.90
5128;DHT22;2582;48.770;9.190;2023-11-21T13:43:16;10.80;99.90
5128;DHT22;2582;48.770;9.190;2023-11-21T13:45:44;10.70;99.90
5128;DHT22;2582;48.770;9.190;2023-11-21T13:48:12;10.80;99.90
5128;DHT22;2582;48.770;9.190;2023-11-21T13:50:48;10.90;99.90
5128;DHT22;2582;48.770;9.190;2023-11-21T13:53:14;11.00;99.90
5128;DHT22;2582;48.770;9.190;2023-11-21T13:55:49;10.90;99.90
5128;DHT22;2582;48.770;9.190;2023-11-21T13:58:16;10.90;99.90
5128;DHT22;2582;48.770;9.190;2023-11-21T14:00:45;11.10;99.90
5128;DHT22;2582;48.770;9.190;2023-11-21T14:03:14;11.00;99.90
5128;DHT22;2582;48.770;9.190;2023-11-21T14:05:47;11.00;99.90
5128;DHT22;2582;48.770;9.190;2023-11-21T14:08:20;11.00;99.90
5128;DHT22;2582;48.770;9.190;2023-11-21T14:10:47;11.20;99.90
5128;DHT22;2582;48.770;9.190;2023-11-21T14:13:19;11.40;99.90
5128;DHT22;2582;48.770;9.190;2023-11-21T14:15:49;11.20;99.90
5128;DHT22;2582;48.770;9.190;2023-11-21T14:18:23;11.10;99.90
5128;DHT22;2582;48.770;9.190;2023-11-21T14:20:56;11.00;99.90
5128;DHT22;2582;48.770;9.190;2023-11-21T14:23:21;10.90;99.90
5128;DHT22;2582;48.770;9.190;2023-11-21T14:25:48;10.90;99.90
5128;DHT22;2582;48.770;9.190;2023-11-21T14:28:15;11.00;99.90
5128;DHT22;2582;48.770;9.190;2023-11-21T14:30:41;11.00;99.90
5128;DHT22;2582;48.770;9.190;2023-11-21T14:33:07;10.90;99.90
5128;DHT22;2582;48.770;9.190;2023-11-21T14:35:35;11.00;99.90
5128;DHT22;2582;48.770;9.190;2023-11-21T14:38:01;11.10;99.90
5128;DHT22;2582;48.770;9.190;2023-11-21T14:40:33;11.20;99.90
5128;DHT22;2582;48.770;9.190;2023-11-21T14:43:02;11.10;99.90
5128;DHT22;2582;48.770;9.190;2023-11-21T14:45:32;10.90;99.90
5128;DHT22;2582;48.770;9.190;2023-11-21T14:47:57;11.10;99.90
5128;DHT22;2582;48.770;9.190;2023-11-21T14:50:41;11.30;99.90
5128;DHT22;2582;48.770;9.190;2023-11-21T14:53:08;11.20;99.90
5128;DHT22;2582;48.770;9.190;2023-11-21T14:55:34;11.20;99.90
5128;DHT22;2582;48.770;9.190;2023-11-21T14:58:22;10.90;99.90
5128;DHT22;2582;48.770;9.190;2023-11-21T15:00:55;10.90;99.90
5128;DHT22;2582;48.770;9.190;2023-11-21T15:03:25;10.80;99.90
5128;DHT22;2582;48.770;9.190;2023-11-21T15:06:11;10.80;99.90
5128;DHT22;2582;48.770;9.190;2023-11-21T15:08:58;11.00;99.90
5128;DHT22;2582;48.770;9.190;2023-11-21T15:11:47;11.00;99.90
5128;DHT22;2582;48.770;9.190;2023-11-21T15:14:13;11.10;99.90
5128;DHT22;2582;48.770;9.190;2023-11-21T15:16:45;11.20;99.90
5128;DHT22;2582;48.770;9.190;2023-11-21T15:19:16;11.20;99.90
5128;DHT22;2582;48.770;9.190;2023-11-21T15:21:44;11.20;99.90
5128;DHT22;2582;48.770;9.190;2023-11-21T15:24:11;11.20;99.90
5128;DHT22;2582;48.770;9.190;2023-11-21T15:26:37;11.10;99.90
5128;DHT22;2582;48.770;9.190;2023-11-21T15:29:02;11.00;99.90
5128;DHT22;2582;48.770;9.190;2023-11-21T15:31:28;11.20;99.90
5128;DHT22;2582;48.770;9.190;2023-11-21T15:33:53;11.20;99.90
5128;DHT22;2582;48.770;9.190;2023-11-21T15:36:20;11.20;99.90
5128;DHT22;2582;48.770;9.190;2023-11-21T15:38:46;10.80;99.90
5128;DHT22;2582;48.770;9.190;2023-11-21T15:41:11;10.80;99.90
5128;DHT22;2582;48.770;9.190;2023-11-21T15:43:37;10.80;99.90
5128;DHT22;2582;48.770;9.190;2023-11-21T15:46:03;10.60;99.90
5128;DHT22;2582;48.770;9.190;2023-11-21T15:48:36;10.50;99.90
5128;DHT22;2582;48.770;9.190;2023-11-21T15:51:06;10.50;99.90
5128;DHT22;2582;48.770;9.190;2023-11-21T15:53:33;10.50;99.90
5128;DHT22;2582;48.770;9.190;2023-11-21T15:55:59;10.50;99.90
5128;DHT22;2582;48.770;9.190;2023-11-21T15:58:24;10.60;99.90
5128;DHT22;2582;48.770;9.190;2023-11-21T16:00:51;10.60;99.90
5128;DHT22;2582;48.770;9.190;2023-11-21T16:03:17;10.60;99.90
5128;DHT22;2582;48.770;9.190;2023-11-21T16:05:42;10.70;99.90
5128;DHT22;2582;48.770;9.190;2023-11-21T16:08:08;10.90;99.90
5128;DHT22;2582;48.770;9.190;2023-11-21T16:10:34;10.90;99.90
5128;DHT22;2582;48.770;9.190;2023-11-21T16:13:01;11.20;99.90